Brush Prairie, Washington
Current Conditions -  °F | °C
As of 5:26 PM on Friday 21 Nov 2014 (Local Time) from KVUO Reporting Station
Overcast Overcast  
Wind Chill: 55°   Ceiling: 1500
Heat Index: 55°   Visibility: 10mi
Dew Point: 51°   Wind: 8mph
Humidity: 86%   Direction: 170°S
Pressure: 29.44"   Gusts: 22mph
Location:  45.73°N, 122.55°W
Report Text: KVUO 220126Z AUTO 17007G19KT 140V210 10SM OVC015 13/11 A2944 RMK AO2 RAE21 P0000 T01280106
Loading
Personal Weather Stations






























Interactive Weather Map New forecast layout! Learn more

10-Day Weather Forecast

Advertisements
Track Severe Weather on mobile